PILOTS ONLINE: 420    ATC ONLINE: 91

CYYH

Taloyoak Airport

Location

IATA YYH
City Taloyoak
Country  Canada
Latitude 69° 32' 48" N
Longitude 93° 34' 36" W
Elevation 92 ft
Type Medium Airport

Map

Weather

METAR
2014/10/25 23:00
CYYH 252300Z 13015KT 15SM FEW012 OVC040 M10/M14 A3005 RMK SC2SC5 SLP180
TAF
2014/10/25 18:42
TAF CYYH 251738Z 2518/2606 10015KT P6SM SCT015 BKN040 BKN070 
      TEMPO 2518/2606 BKN015 OVC040 
      RMK NXT FCST BY 260000Z

Runways

15T/33T 4020 ft / 100 ft

Outbound flights

Callsign Flying to Pilot ATD/STD ETA Aircraft

Inbound flights

Callsign Flying from Pilot ATD ETA Aircraft